sensor_id;sensor_type;location;lat;lon;timestamp;pressure;altitude;pressure_sealevel;temperature;humidity
73594;BME280;64760;53.404;23.498;2023-08-06T00:01:06;98659.31;;;23.47;100.00
73594;BME280;64760;53.404;23.498;2023-08-06T00:03:48;98666.91;;;23.36;100.00
73594;BME280;64760;53.404;23.498;2023-08-06T00:06:15;98664.31;;;23.45;100.00
73594;BME280;64760;53.404;23.498;2023-08-06T00:08:41;98670.84;;;23.30;100.00
73594;BME280;64760;53.404;23.498;2023-08-06T00:11:07;98665.09;;;23.31;100.00
73594;BME280;64760;53.404;23.498;2023-08-06T00:13:33;98668.75;;;23.27;100.00
73594;BME280;64760;53.404;23.498;2023-08-06T00:16:10;98665.09;;;23.18;100.00
73594;BME280;64760;53.404;23.498;2023-08-06T00:18:37;98654.78;;;23.15;100.00
73594;BME280;64760;53.404;23.498;2023-08-06T00:21:03;98656.72;;;23.01;100.00
73594;BME280;64760;53.404;23.498;2023-08-06T00:23:29;98662.47;;;22.99;100.00
73594;BME280;64760;53.404;23.498;2023-08-06T00:25:56;98654.06;;;22.96;100.00
73594;BME280;64760;53.404;23.498;2023-08-06T00:28:22;98657.69;;;22.77;100.00
73594;BME280;64760;53.404;23.498;2023-08-06T00:30:55;98650.63;;;22.76;100.00
73594;BME280;64760;53.404;23.498;2023-08-06T00:33:22;98644.03;;;22.77;100.00
73594;BME280;64760;53.404;23.498;2023-08-06T00:35:48;98647.38;;;22.74;100.00
73594;BME280;64760;53.404;23.498;2023-08-06T00:38:15;98650.72;;;22.71;100.00
73594;BME280;64760;53.404;23.498;2023-08-06T00:40:41;98641.34;;;22.59;100.00
73594;BME280;64760;53.404;23.498;2023-08-06T00:43:07;98637.09;;;22.66;100.00
73594;BME280;64760;53.404;23.498;2023-08-06T00:45:35;98642.38;;;22.49;100.00
73594;BME280;64760;53.404;23.498;2023-08-06T00:48:04;98635.69;;;22.55;100.00
73594;BME280;64760;53.404;23.498;2023-08-06T00:50:30;98631.25;;;22.59;100.00
73594;BME280;64760;53.404;23.498;2023-08-06T00:52:57;98631.72;;;22.47;100.00
73594;BME280;64760;53.404;23.498;2023-08-06T00:55:24;98635.56;;;22.46;100.00
73594;BME280;64760;53.404;23.498;2023-08-06T00:57:50;98633.25;;;22.40;100.00
73594;BME280;64760;53.404;23.498;2023-08-06T01:00:19;98622.13;;;22.50;100.00
73594;BME280;64760;53.404;23.498;2023-08-06T01:02:48;98618.69;;;22.44;100.00
73594;BME280;64760;53.404;23.498;2023-08-06T01:05:15;98623.94;;;22.41;100.00
73594;BME280;64760;53.404;23.498;2023-08-06T01:16:03;98600.25;;;22.36;100.00
73594;BME280;64760;53.404;23.498;2023-08-06T01:18:31;98603.88;;;22.32;100.00
73594;BME280;64760;53.404;23.498;2023-08-06T01:20:58;98603.28;;;22.35;100.00
73594;BME280;64760;53.404;23.498;2023-08-06T01:23:24;98591.88;;;22.33;100.00
73594;BME280;64760;53.404;23.498;2023-08-06T01:26:15;98594.28;;;22.34;100.00
73594;BME280;64760;53.404;23.498;2023-08-06T01:29:10;98590.31;;;22.27;100.00
73594;BME280;64760;53.404;23.498;2023-08-06T01:31:39;98582.13;;;22.27;100.00
73594;BME280;64760;53.404;23.498;2023-08-06T01:34:09;98581.03;;;22.28;100.00
73594;BME280;64760;53.404;23.498;2023-08-06T01:36:37;98575.78;;;22.31;100.00
73594;BME280;64760;53.404;23.498;2023-08-06T01:39:04;98570.91;;;22.28;100.00
73594;BME280;64760;53.404;23.498;2023-08-06T01:41:31;98569.00;;;22.29;100.00
73594;BME280;64760;53.404;23.498;2023-08-06T01:43:57;98564.66;;;22.28;100.00
73594;BME280;64760;53.404;23.498;2023-08-06T01:46:23;98559.47;;;22.26;100.00
73594;BME280;64760;53.404;23.498;2023-08-06T01:48:51;98555.59;;;22.14;100.00
73594;BME280;64760;53.404;23.498;2023-08-06T01:51:17;98543.59;;;22.15;100.00
73594;BME280;64760;53.404;23.498;2023-08-06T01:53:44;98552.28;;;22.17;100.00
73594;BME280;64760;53.404;23.498;2023-08-06T01:56:10;98545.41;;;22.19;100.00
73594;BME280;64760;53.404;23.498;2023-08-06T01:58:36;98550.97;;;22.14;100.00
73594;BME280;64760;53.404;23.498;2023-08-06T02:01:02;98555.53;;;22.19;100.00
73594;BME280;64760;53.404;23.498;2023-08-06T02:03:29;98544.31;;;22.20;100.00
73594;BME280;64760;53.404;23.498;2023-08-06T02:05:55;98550.06;;;22.19;100.00
73594;BME280;64760;53.404;23.498;2023-08-06T02:08:22;98542.78;;;22.14;100.00
73594;BME280;64760;53.404;23.498;2023-08-06T02:10:48;98542.78;;;22.14;100.00
73594;BME280;64760;53.404;23.498;2023-08-06T02:13:15;98537.31;;;22.14;100.00
73594;BME280;64760;53.404;23.498;2023-08-06T02:15:45;98540.34;;;22.13;100.00
73594;BME280;64760;53.404;23.498;2023-08-06T02:18:14;98532.66;;;22.15;100.00
73594;BME280;64760;53.404;23.498;2023-08-06T02:20:41;98529.72;;;22.11;100.00
73594;BME280;64760;53.404;23.498;2023-08-06T02:23:08;98533.88;;;22.09;100.00
73594;BME280;64760;53.404;23.498;2023-08-06T02:25:35;98532.75;;;22.10;100.00
73594;BME280;64760;53.404;23.498;2023-08-06T02:28:01;98529.94;;;22.15;100.00
73594;BME280;64760;53.404;23.498;2023-08-06T02:30:27;98532.66;;;22.15;100.00
73594;BME280;64760;53.404;23.498;2023-08-06T02:32:54;98531.34;;;22.12;100.00
73594;BME280;64760;53.404;23.498;2023-08-06T02:35:20;98527.72;;;22.17;100.00
73594;BME280;64760;53.404;23.498;2023-08-06T02:37:46;98529.72;;;22.11;100.00
73594;BME280;64760;53.404;23.498;2023-08-06T02:40:12;98527.00;;;22.11;100.00
73594;BME280;64760;53.404;23.498;2023-08-06T02:42:39;98530.03;;;22.10;100.00
73594;BME280;64760;53.404;23.498;2023-08-06T02:45:06;98531.34;;;22.12;100.00
73594;BME280;64760;53.404;23.498;2023-08-06T02:47:32;98528.09;;;22.10;100.00
73594;BME280;64760;53.404;23.498;2023-08-06T02:49:59;98527.81;;;22.12;100.00
73594;BME280;64760;53.404;23.498;2023-08-06T02:52:25;98530.44;;;22.03;100.00
73594;BME280;64760;53.404;23.498;2023-08-06T02:54:52;98534.47;;;22.06;100.00
73594;BME280;64760;53.404;23.498;2023-08-06T02:57:18;98529.13;;;22.14;100.00
73594;BME280;64760;53.404;23.498;2023-08-06T02:59:45;98529.25;;;22.09;100.00
73594;BME280;64760;53.404;23.498;2023-08-06T03:02:18;98527.63;;;22.22;100.00
73594;BME280;64760;53.404;23.498;2023-08-06T03:04:54;98516.69;;;22.22;100.00
73594;BME280;64760;53.404;23.498;2023-08-06T03:07:24;98517.50;;;22.22;100.00
73594;BME280;64760;53.404;23.498;2023-08-06T03:09:57;98514.41;;;22.29;100.00
73594;BME280;64760;53.404;23.498;2023-08-06T03:12:25;98513.19;;;22.21;100.00
73594;BME280;64760;53.404;23.498;2023-08-06T03:14:51;98503.75;;;22.27;100.00
73594;BME280;64760;53.404;23.498;2023-08-06T03:17:17;98514.56;;;22.19;100.00
73594;BME280;64760;53.404;23.498;2023-08-06T03:19:43;98510.03;;;22.28;100.00
73594;BME280;64760;53.404;23.498;2023-08-06T03:22:11;98510.22;;;22.18;100.00
73594;BME280;64760;53.404;23.498;2023-08-06T03:24:38;98500.03;;;22.23;100.00
73594;BME280;64760;53.404;23.498;2023-08-06T03:27:05;98495.34;;;22.37;99.49
73594;BME280;64760;53.404;23.498;2023-08-06T03:29:32;98494.25;;;22.38;99.25
73594;BME280;64760;53.404;23.498;2023-08-06T03:32:01;98496.91;;;22.43;98.42
73594;BME280;64760;53.404;23.498;2023-08-06T03:34:27;98492.72;;;22.46;98.23
73594;BME280;64760;53.404;23.498;2023-08-06T03:36:54;98479.19;;;22.41;98.55
73594;BME280;64760;53.404;23.498;2023-08-06T03:39:20;98484.84;;;22.31;99.18
73594;BME280;64760;53.404;23.498;2023-08-06T03:41:46;98489.41;;;22.49;98.78
73594;BME280;64760;53.404;23.498;2023-08-06T03:44:13;98485.75;;;22.54;97.90
73594;BME280;64760;53.404;23.498;2023-08-06T03:46:40;98482.91;;;22.59;97.68
73594;BME280;64760;53.404;23.498;2023-08-06T03:49:08;98475.13;;;22.66;97.63
73594;BME280;64760;53.404;23.498;2023-08-06T03:51:34;98469.88;;;22.69;97.18
73594;BME280;64760;53.404;23.498;2023-08-06T03:54:01;98471.41;;;22.75;97.14
73594;BME280;64760;53.404;23.498;2023-08-06T03:56:28;98463.59;;;22.82;96.58
73594;BME280;64760;53.404;23.498;2023-08-06T03:58:54;98457.28;;;22.96;95.18
73594;BME280;64760;53.404;23.498;2023-08-06T04:01:20;98456.75;;;22.93;95.00
73594;BME280;64760;53.404;23.498;2023-08-06T04:03:47;98457.56;;;22.94;95.43
73594;BME280;64760;53.404;23.498;2023-08-06T04:06:14;98451.69;;;23.01;94.94
73594;BME280;64760;53.404;23.498;2023-08-06T04:08:42;98444.97;;;23.07;93.82
73594;BME280;64760;53.404;23.498;2023-08-06T04:11:08;98446.41;;;23.04;94.19
73594;BME280;64760;53.404;23.498;2023-08-06T04:13:35;98437.97;;;23.14;92.85
73594;BME280;64760;53.404;23.498;2023-08-06T04:16:02;98438.03;;;23.23;93.22
73594;BME280;64760;53.404;23.498;2023-08-06T04:18:29;98430.34;;;23.25;92.77
73594;BME280;64760;53.404;23.498;2023-08-06T04:20:56;98420.41;;;23.29;92.11
73594;BME280;64760;53.404;23.498;2023-08-06T04:23:23;98424.63;;;23.35;91.81
73594;BME280;64760;53.404;23.498;2023-08-06T04:25:51;98425.59;;;23.39;91.13
73594;BME280;64760;53.404;23.498;2023-08-06T04:28:17;98414.94;;;23.51;90.31
73594;BME280;64760;53.404;23.498;2023-08-06T04:30:44;98418.66;;;23.55;89.54
73594;BME280;64760;53.404;23.498;2023-08-06T04:33:10;98418.06;;;23.67;88.98
73594;BME280;64760;53.404;23.498;2023-08-06T04:35:37;98415.06;;;23.77;87.96
73594;BME280;64760;53.404;23.498;2023-08-06T04:38:04;98414.75;;;23.78;88.73
73594;BME280;64760;53.404;23.498;2023-08-06T04:40:32;98409.50;;;23.91;87.07
73594;BME280;64760;53.404;23.498;2023-08-06T04:42:59;98404.31;;;23.89;87.03
73594;BME280;64760;53.404;23.498;2023-08-06T04:45:28;98400.50;;;23.99;86.51
73594;BME280;64760;53.404;23.498;2023-08-06T04:47:54;98404.09;;;24.08;85.96
73594;BME280;64760;53.404;23.498;2023-08-06T04:50:20;98401.41;;;24.16;85.47
73594;BME280;64760;53.404;23.498;2023-08-06T04:52:47;98399.19;;;24.27;84.92
73594;BME280;64760;53.404;23.498;2023-08-06T04:55:13;98382.94;;;24.39;84.18
73594;BME280;64760;53.404;23.498;2023-08-06T04:57:39;98386.97;;;24.42;83.47
73594;BME280;64760;53.404;23.498;2023-08-06T05:00:06;98382.78;;;24.53;82.80
73594;BME280;64760;53.404;23.498;2023-08-06T05:02:32;98374.91;;;24.51;82.07
73594;BME280;64760;53.404;23.498;2023-08-06T05:05:00;98382.31;;;24.76;80.50
73594;BME280;64760;53.404;23.498;2023-08-06T05:07:26;98372.97;;;24.77;80.66
73594;BME280;64760;53.404;23.498;2023-08-06T05:09:53;98374.28;;;24.89;79.61
73594;BME280;64760;53.404;23.498;2023-08-06T05:12:19;98371.38;;;24.85;80.15
73594;BME280;64760;53.404;23.498;2023-08-06T05:14:46;98368.19;;;24.92;79.52
73594;BME280;64760;53.404;23.498;2023-08-06T05:17:12;98376.56;;;25.04;77.66
73594;BME280;64760;53.404;23.498;2023-08-06T05:19:39;98364.56;;;25.17;78.20
73594;BME280;64760;53.404;23.498;2023-08-06T05:22:05;98366.84;;;25.23;78.05
73594;BME280;64760;53.404;23.498;2023-08-06T05:24:32;98363.09;;;25.28;76.68
73594;BME280;64760;53.404;23.498;2023-08-06T05:26:58;98356.78;;;25.36;76.38
73594;BME280;64760;53.404;23.498;2023-08-06T05:29:24;98354.84;;;25.45;76.56
73594;BME280;64760;53.404;23.498;2023-08-06T05:31:51;98361.75;;;25.60;76.13
73594;BME280;64760;53.404;23.498;2023-08-06T05:34:17;98354.44;;;25.73;75.35
73594;BME280;64760;53.404;23.498;2023-08-06T05:36:43;98350.44;;;25.61;74.56
73594;BME280;64760;53.404;23.498;2023-08-06T05:39:10;98349.75;;;25.73;72.77
73594;BME280;64760;53.404;23.498;2023-08-06T05:41:36;98356.81;;;25.91;72.66
73594;BME280;64760;53.404;23.498;2023-08-06T05:44:03;98333.53;;;25.89;71.32
73594;BME280;64760;53.404;23.498;2023-08-06T05:46:29;98343.50;;;26.02;70.49
73594;BME280;64760;53.404;23.498;2023-08-06T06:03:26;98305.66;;;26.57;66.05
73594;BME280;64760;53.404;23.498;2023-08-06T06:06:01;98314.16;;;26.64;66.25
73594;BME280;64760;53.404;23.498;2023-08-06T06:08:41;98302.41;;;26.76;65.66
73594;BME280;64760;53.404;23.498;2023-08-06T06:11:07;98309.50;;;26.77;64.87
73594;BME280;64760;53.404;23.498;2023-08-06T06:13:34;98296.78;;;26.93;64.83
73594;BME280;64760;53.404;23.498;2023-08-06T06:16:00;98291.19;;;27.02;64.39
73594;BME280;64760;53.404;23.498;2023-08-06T06:18:27;98282.72;;;27.07;63.63
73594;BME280;64760;53.404;23.498;2023-08-06T06:20:55;98294.91;;;27.18;63.92
73594;BME280;64760;53.404;23.498;2023-08-06T06:23:22;98291.72;;;27.28;63.41
73594;BME280;64760;53.404;23.498;2023-08-06T06:25:49;98283.34;;;27.37;62.71
73594;BME280;64760;53.404;23.498;2023-08-06T06:28:19;98272.13;;;27.42;62.20
73594;BME280;64760;53.404;23.498;2023-08-06T06:30:46;98278.69;;;27.49;61.67
73594;BME280;64760;53.404;23.498;2023-08-06T06:33:13;98272.06;;;27.50;61.28
73594;BME280;64760;53.404;23.498;2023-08-06T06:35:42;98281.25;;;27.54;60.96
73594;BME280;64760;53.404;23.498;2023-08-06T06:38:09;98273.66;;;27.64;61.16
73594;BME280;64760;53.404;23.498;2023-08-06T06:40:35;98272.97;;;27.67;60.04
73594;BME280;64760;53.404;23.498;2023-08-06T06:43:01;98268.84;;;27.85;59.14
73594;BME280;64760;53.404;23.498;2023-08-06T06:49:19;98260.31;;;28.02;57.99
73594;BME280;64760;53.404;23.498;2023-08-06T06:52:08;98261.13;;;28.15;57.73
73594;BME280;64760;53.404;23.498;2023-08-06T06:54:34;98255.91;;;28.37;57.26
73594;BME280;64760;53.404;23.498;2023-08-06T06:57:02;98261.19;;;28.42;56.67
73594;BME280;64760;53.404;23.498;2023-08-06T06:59:28;98261.97;;;28.43;56.29
73594;BME280;64760;53.404;23.498;2023-08-06T07:01:57;98263.53;;;28.56;56.41
73594;BME280;64760;53.404;23.498;2023-08-06T07:04:26;98257.66;;;28.70;55.70
73594;BME280;64760;53.404;23.498;2023-08-06T07:06:53;98245.47;;;28.71;54.66
73594;BME280;64760;53.404;23.498;2023-08-06T07:09:20;98239.63;;;28.88;53.93
73594;BME280;64760;53.404;23.498;2023-08-06T07:11:46;98240.16;;;28.78;53.50
73594;BME280;64760;53.404;23.498;2023-08-06T07:14:13;98257.97;;;28.96;53.46
73594;BME280;64760;53.404;23.498;2023-08-06T07:16:40;98249.88;;;29.03;53.51
73594;BME280;64760;53.404;23.498;2023-08-06T07:19:06;98243.56;;;29.18;52.68
73594;BME280;64760;53.404;23.498;2023-08-06T07:21:33;98236.56;;;29.21;52.84
73594;BME280;64760;53.404;23.498;2023-08-06T07:23:59;98230.63;;;29.34;52.41
73594;BME280;64760;53.404;23.498;2023-08-06T07:26:26;98234.72;;;29.41;52.59
73594;BME280;64760;53.404;23.498;2023-08-06T07:28:52;98243.91;;;29.45;52.27
73594;BME280;64760;53.404;23.498;2023-08-06T07:31:19;98239.00;;;29.54;52.50
73594;BME280;64760;53.404;23.498;2023-08-06T07:33:45;98228.94;;;29.61;50.63
73594;BME280;64760;53.404;23.498;2023-08-06T07:36:13;98237.56;;;29.60;50.22
73594;BME280;64760;53.404;23.498;2023-08-06T07:38:41;98235.25;;;29.62;51.22
73594;BME280;64760;53.404;23.498;2023-08-06T07:41:08;98238.88;;;29.81;50.93
73594;BME280;64760;53.404;23.498;2023-08-06T07:43:35;98235.66;;;29.79;49.38
73594;BME280;64760;53.404;23.498;2023-08-06T07:46:02;98237.34;;;29.84;49.88
73594;BME280;64760;53.404;23.498;2023-08-06T07:48:28;98237.28;;;30.15;50.63
73594;BME280;64760;53.404;23.498;2023-08-06T07:50:55;98226.38;;;30.22;50.29
73594;BME280;64760;53.404;23.498;2023-08-06T07:53:24;98230.53;;;30.32;50.49
73594;BME280;64760;53.404;23.498;2023-08-06T07:55:53;98218.69;;;30.31;49.42
73594;BME280;64760;53.404;23.498;2023-08-06T07:58:20;98215.81;;;30.44;49.24
73594;BME280;64760;53.404;23.498;2023-08-06T08:00:47;98212.72;;;30.29;48.48
73594;BME280;64760;53.404;23.498;2023-08-06T08:03:14;98215.59;;;30.52;48.03
73594;BME280;64760;53.404;23.498;2023-08-06T08:05:43;98212.88;;;30.56;48.29
73594;BME280;64760;53.404;23.498;2023-08-06T08:08:09;98212.28;;;30.66;47.78
73594;BME280;64760;53.404;23.498;2023-08-06T08:10:36;98208.47;;;30.74;46.92
73594;BME280;64760;53.404;23.498;2023-08-06T08:13:04;98214.44;;;30.95;47.60
73594;BME280;64760;53.404;23.498;2023-08-06T08:15:31;98211.31;;;30.97;46.71
73594;BME280;64760;53.404;23.498;2023-08-06T08:17:58;98208.44;;;31.12;47.34
73594;BME280;64760;53.404;23.498;2023-08-06T08:20:25;98198.19;;;31.13;47.27
73594;BME280;64760;53.404;23.498;2023-08-06T08:23:00;98204.38;;;31.06;46.98
73594;BME280;64760;53.404;23.498;2023-08-06T08:25:28;98191.41;;;30.91;46.24
73594;BME280;64760;53.404;23.498;2023-08-06T08:27:55;98193.19;;;30.99;46.50
73594;BME280;64760;53.404;23.498;2023-08-06T08:30:22;98206.16;;;31.18;45.79
73594;BME280;64760;53.404;23.498;2023-08-06T08:32:48;98198.22;;;31.16;44.89
73594;BME280;64760;53.404;23.498;2023-08-06T08:35:15;98203.25;;;31.34;44.95
73594;BME280;64760;53.404;23.498;2023-08-06T08:37:42;98182.53;;;31.24;45.62
73594;BME280;64760;53.404;23.498;2023-08-06T08:40:09;98194.34;;;31.21;44.37
73594;BME280;64760;53.404;23.498;2023-08-06T08:42:37;98188.25;;;31.35;44.13
73594;BME280;64760;53.404;23.498;2023-08-06T08:45:11;98182.75;;;31.38;44.79
73594;BME280;64760;53.404;23.498;2023-08-06T08:47:42;98194.97;;;31.56;45.47
73594;BME280;64760;53.404;23.498;2023-08-06T08:50:10;98190.13;;;31.53;45.25
73594;BME280;64760;53.404;23.498;2023-08-06T08:52:43;98184.06;;;31.71;44.79
73594;BME280;64760;53.404;23.498;2023-08-06T08:55:12;98179.19;;;31.60;44.07
73594;BME280;64760;53.404;23.498;2023-08-06T08:57:40;98183.28;;;31.70;44.87
73594;BME280;64760;53.404;23.498;2023-08-06T09:00:06;98178.94;;;31.69;44.67
73594;BME280;64760;53.404;23.498;2023-08-06T09:02:33;98182.66;;;31.80;44.15
73594;BME280;64760;53.404;23.498;2023-08-06T09:05:01;98179.53;;;31.85;44.26
73594;BME280;64760;53.404;23.498;2023-08-06T09:07:40;98170.00;;;31.83;43.91
73594;BME280;64760;53.404;23.498;2023-08-06T09:13:28;98161.72;;;32.12;44.54
73594;BME280;64760;53.404;23.498;2023-08-06T09:15:55;98154.63;;;32.15;43.47
73594;BME280;64760;53.404;23.498;2023-08-06T09:18:29;98154.88;;;32.06;43.24
73594;BME280;64760;53.404;23.498;2023-08-06T09:20:57;98146.25;;;32.11;44.02
73594;BME280;64760;53.404;23.498;2023-08-06T09:23:30;98151.13;;;32.22;43.24
73594;BME280;64760;53.404;23.498;2023-08-06T09:25:57;98132.41;;;32.11;42.16
73594;BME280;64760;53.404;23.498;2023-08-06T09:28:24;98116.63;;;32.19;42.80
73594;BME280;64760;53.404;23.498;2023-08-06T09:30:52;98122.78;;;32.35;42.38
73594;BME280;64760;53.404;23.498;2023-08-06T09:33:22;98120.94;;;32.50;41.90
73594;BME280;64760;53.404;23.498;2023-08-06T09:35:50;98110.50;;;32.36;42.34
73594;BME280;64760;53.404;23.498;2023-08-06T09:38:16;98121.63;;;32.77;42.19
73594;BME280;64760;53.404;23.498;2023-08-06T09:40:43;98110.94;;;32.79;41.36
73594;BME280;64760;53.404;23.498;2023-08-06T09:43:11;98097.41;;;32.74;41.38
73594;BME280;64760;53.404;23.498;2023-08-06T09:45:38;98095.59;;;32.88;41.02
73594;BME280;64760;53.404;23.498;2023-08-06T09:48:08;98089.53;;;32.79;41.24
73594;BME280;64760;53.404;23.498;2023-08-06T09:50:39;98087.16;;;32.81;41.13
73594;BME280;64760;53.404;23.498;2023-08-06T09:53:11;98076.03;;;32.78;41.16
73594;BME280;64760;53.404;23.498;2023-08-06T09:55:39;98082.38;;;32.78;41.09
73594;BME280;64760;53.404;23.498;2023-08-06T09:58:06;98079.81;;;33.03;40.92
73594;BME280;64760;53.404;23.498;2023-08-06T10:00:33;98079.63;;;33.29;40.95
73594;BME280;64760;53.404;23.498;2023-08-06T10:03:00;98068.50;;;33.26;39.39
73594;BME280;64760;53.404;23.498;2023-08-06T10:05:34;98057.84;;;33.35;40.64
73594;BME280;64760;53.404;23.498;2023-08-06T10:08:01;98072.06;;;33.23;39.57
73594;BME280;64760;53.404;23.498;2023-08-06T10:10:29;98072.88;;;33.27;40.27
73594;BME280;64760;53.404;23.498;2023-08-06T10:12:56;98062.91;;;33.19;40.20
73594;BME280;64760;53.404;23.498;2023-08-06T10:15:26;98060.66;;;33.38;39.83
73594;BME280;64760;53.404;23.498;2023-08-06T10:17:56;98054.78;;;33.54;39.75
73594;BME280;64760;53.404;23.498;2023-08-06T10:20:23;98061.16;;;33.58;39.28
73594;BME280;64760;53.404;23.498;2023-08-06T10:23:01;98061.72;;;33.88;39.35
73594;BME280;64760;53.404;23.498;2023-08-06T10:25:30;98057.69;;;33.75;39.68
73594;BME280;64760;53.404;23.498;2023-08-06T10:27:57;98059.38;;;34.08;39.71
73594;BME280;64760;53.404;23.498;2023-08-06T10:30:32;98050.66;;;33.99;39.10
73594;BME280;64760;53.404;23.498;2023-08-06T10:33:00;98047.00;;;33.84;40.15
73594;BME280;64760;53.404;23.498;2023-08-06T10:35:31;98054.25;;;34.14;39.89
73594;BME280;64760;53.404;23.498;2023-08-06T10:37:59;98044.28;;;33.98;38.77
73594;BME280;64760;53.404;23.498;2023-08-06T10:40:26;98040.81;;;34.23;38.68
73594;BME280;64760;53.404;23.498;2023-08-06T10:42:52;98030.47;;;34.20;38.69
73594;BME280;64760;53.404;23.498;2023-08-06T10:45:19;98040.34;;;34.07;38.74
73594;BME280;64760;53.404;23.498;2023-08-06T10:47:46;98027.69;;;34.20;38.05
73594;BME280;64760;53.404;23.498;2023-08-06T10:50:14;98034.47;;;34.47;38.28
73594;BME280;64760;53.404;23.498;2023-08-06T10:52:45;98023.75;;;34.60;37.54
73594;BME280;64760;53.404;23.498;2023-08-06T10:55:23;98017.41;;;34.87;36.93
73594;BME280;64760;53.404;23.498;2023-08-06T10:57:50;98020.56;;;34.97;36.98
73594;BME280;64760;53.404;23.498;2023-08-06T11:00:18;98008.66;;;34.82;36.83
73594;BME280;64760;53.404;23.498;2023-08-06T11:02:47;98014.22;;;34.85;37.61
73594;BME280;64760;53.404;23.498;2023-08-06T11:05:13;98019.38;;;34.98;36.97
73594;BME280;64760;53.404;23.498;2023-08-06T11:07:39;98003.47;;;35.19;36.42
73594;BME280;64760;53.404;23.498;2023-08-06T11:10:08;97997.50;;;35.14;35.34
73594;BME280;64760;53.404;23.498;2023-08-06T11:12:35;98009.44;;;35.00;37.10
73594;BME280;64760;53.404;23.498;2023-08-06T11:15:03;98011.81;;;35.26;36.60
73594;BME280;64760;53.404;23.498;2023-08-06T11:17:32;98008.59;;;35.35;35.51
73594;BME280;64760;53.404;23.498;2023-08-06T11:20:00;97974.81;;;35.19;34.22
73594;BME280;64760;53.404;23.498;2023-08-06T11:22:27;97988.69;;;35.33;34.20
73594;BME280;64760;53.404;23.498;2023-08-06T11:24:54;97988.66;;;35.44;33.24
73594;BME280;64760;53.404;23.498;2023-08-06T11:27:20;97964.78;;;35.39;33.21
73594;BME280;64760;53.404;23.498;2023-08-06T11:29:47;97977.13;;;35.38;33.70
73594;BME280;64760;53.404;23.498;2023-08-06T11:32:13;97981.56;;;35.11;33.79
73594;BME280;64760;53.404;23.498;2023-08-06T11:37:45;97964.78;;;35.32;33.83
73594;BME280;64760;53.404;23.498;2023-08-06T11:40:15;97960.00;;;35.40;34.10
73594;BME280;64760;53.404;23.498;2023-08-06T11:42:42;97960.00;;;35.43;34.25
73594;BME280;64760;53.404;23.498;2023-08-06T11:45:09;97965.94;;;35.45;33.80
73594;BME280;64760;53.404;23.498;2023-08-06T11:47:39;97974.25;;;35.56;33.94
73594;BME280;64760;53.404;23.498;2023-08-06T11:50:09;97960.72;;;35.61;33.24
73594;BME280;64760;53.404;23.498;2023-08-06T11:52:47;97949.09;;;35.77;32.45
73594;BME280;64760;53.404;23.498;2023-08-06T11:55:14;97953.41;;;35.89;33.23
73594;BME280;64760;53.404;23.498;2023-08-06T11:57:44;97948.22;;;35.94;32.72
73594;BME280;64760;53.404;23.498;2023-08-06T12:00:12;97949.16;;;35.56;33.81
73594;BME280;64760;53.404;23.498;2023-08-06T12:02:44;97949.63;;;35.51;34.03
73594;BME280;64760;53.404;23.498;2023-08-06T12:05:15;97924.91;;;35.49;32.15
73594;BME280;64760;53.404;23.498;2023-08-06T12:07:45;97937.25;;;35.55;32.68
73594;BME280;64760;53.404;23.498;2023-08-06T12:10:13;97933.59;;;35.69;32.10
73594;BME280;64760;53.404;23.498;2023-08-06T12:12:39;97925.94;;;35.87;32.90
73594;BME280;64760;53.404;23.498;2023-08-06T12:15:07;97913.81;;;36.15;32.77
73594;BME280;64760;53.404;23.498;2023-08-06T12:17:34;97901.34;;;36.30;32.23
73594;BME280;64760;53.404;23.498;2023-08-06T12:20:04;97910.25;;;36.55;31.53
73594;BME280;64760;53.404;23.498;2023-08-06T12:25:25;97891.06;;;36.16;31.36
73594;BME280;64760;53.404;23.498;2023-08-06T12:27:51;97898.66;;;36.16;32.31
73594;BME280;64760;53.404;23.498;2023-08-06T12:30:18;97878.78;;;36.10;31.71
73594;BME280;64760;53.404;23.498;2023-08-06T12:32:44;97890.28;;;36.16;31.88
73594;BME280;64760;53.404;23.498;2023-08-06T12:35:11;97870.06;;;35.98;31.88
73594;BME280;64760;53.404;23.498;2023-08-06T12:37:37;97886.88;;;36.42;30.87
73594;BME280;64760;53.404;23.498;2023-08-06T12:40:08;97858.38;;;36.17;31.55
73594;BME280;64760;53.404;23.498;2023-08-06T12:42:34;97869.03;;;36.29;31.55
73594;BME280;64760;53.404;23.498;2023-08-06T12:45:01;97875.09;;;36.20;31.78
73594;BME280;64760;53.404;23.498;2023-08-06T12:47:28;97866.38;;;36.15;31.64
73594;BME280;64760;53.404;23.498;2023-08-06T12:49:55;97861.03;;;36.31;30.79
73594;BME280;64760;53.404;23.498;2023-08-06T12:52:22;97848.59;;;36.39;31.33
73594;BME280;64760;53.404;23.498;2023-08-06T12:54:48;97833.06;;;36.38;31.41
73594;BME280;64760;53.404;23.498;2023-08-06T12:57:14;97855.69;;;36.51;30.71
73594;BME280;64760;53.404;23.498;2023-08-06T12:59:41;97846.03;;;36.62;30.37
73594;BME280;64760;53.404;23.498;2023-08-06T13:02:07;97846.25;;;36.38;30.83
73594;BME280;64760;53.404;23.498;2023-08-06T13:04:34;97850.06;;;36.58;31.47
73594;BME280;64760;53.404;23.498;2023-08-06T13:07:00;97827.53;;;36.72;31.38
73594;BME280;64760;53.404;23.498;2023-08-06T13:09:26;97848.56;;;36.46;31.41
73594;BME280;64760;53.404;23.498;2023-08-06T13:11:53;97852.53;;;36.45;31.13
73594;BME280;64760;53.404;23.498;2023-08-06T13:14:20;97847.78;;;35.94;31.65
73594;BME280;64760;53.404;23.498;2023-08-06T13:16:46;97854.53;;;35.97;32.02
73594;BME280;64760;53.404;23.498;2023-08-06T13:19:13;97861.59;;;36.12;31.82
73594;BME280;64760;53.404;23.498;2023-08-06T13:24:07;97849.19;;;36.20;31.38
73594;BME280;64760;53.404;23.498;2023-08-06T13:26:35;97831.00;;;36.46;31.11
73594;BME280;64760;53.404;23.498;2023-08-06T13:29:05;97831.41;;;36.44;31.39